Time;durP1;ratioP1;P1;durP2;ratioP2;P2;SDS_P1;SDS_P2;PMS_P1;PMS_P2;Temp;Humidity;BMP_temperature;BMP_pressure;BME280_temperature;BME280_humidity;BME280_pressure;Samples;Min_cycle;Max_cycle;Signal;HPM_P1;HPM_P2
2021/05/31 08:27:52;;;;;;;165.48;157.77;;;;;;;;;;5090858;27;20557;-73
2021/05/31 08:30:20;;;;;;;211.80;202.20;;;;;;;;;;5091007;28;20701;-73
2021/05/31 08:32:46;;;;;;;185.70;177.27;;;;;;;;;;5090851;28;20695;-73
2021/05/31 08:35:12;;;;;;;203.30;194.07;;;;;;;;;;5090832;28;20243;-73
2021/05/31 08:37:38;;;;;;;222.38;212.23;;;;;;;;;;5090785;28;20664;-73
2021/05/31 08:40:06;;;;;;;249.23;237.82;;;;;;;;;;5089366;28;20580;-73
2021/05/31 08:42:35;;;;;;;291.45;278.05;;;;;;;;;;5090635;28;20172;-73
2021/05/31 08:45:02;;;;;;;326.27;310.88;;;;;;;;;;5090544;28;20160;-73
2021/05/31 08:47:28;;;;;;;339.00;323.00;;;;;;;;;;5090459;28;20730;-73
2021/05/31 08:49:54;;;;;;;393.23;373.60;;;;;;;;;;5090449;28;20175;-73
2021/05/31 08:52:20;;;;;;;404.50;384.08;;;;;;;;;;5090408;28;20529;-73
2021/05/31 08:54:46;;;;;;;433.63;411.58;;;;;;;;;;5090467;28;20168;-73
2021/05/31 08:57:12;;;;;;;414.17;393.42;;;;;;;;;;5090380;28;20186;-74
2021/05/31 08:59:38;;;;;;;425.38;404.02;;;;;;;;;;5089119;28;20266;-74
2021/05/31 09:02:04;;;;;;;429.08;407.33;;;;;;;;;;5090295;28;20636;-74
2021/05/31 09:04:30;;;;;;;386.35;367.48;;;;;;;;;;5090250;28;20246;-74
2021/05/31 09:06:57;;;;;;;449.30;426.27;;;;;;;;;;5090099;28;20191;-74
2021/05/31 09:09:37;;;;;;;419.98;399.08;;;;;;;;;;5090164;28;20527;-74
2021/05/31 09:12:06;;;;;;;452.10;428.88;;;;;;;;;;5090381;28;20617;-74
2021/05/31 09:14:32;;;;;;;453.52;430.13;;;;;;;;;;5090050;28;20168;-74
2021/05/31 09:16:58;;;;;;;451.33;428.10;;;;;;;;;;5090036;28;20254;-74
2021/05/31 09:19:24;;;;;;;382.70;364.15;;;;;;;;;;5088688;28;20217;-74
2021/05/31 09:21:50;;;;;;;388.23;369.25;;;;;;;;;;5089902;28;20199;-74
2021/05/31 09:24:22;;;;;;;399.90;380.20;;;;;;;;;;5089886;28;20160;-74
2021/05/31 09:26:51;;;;;;;364.05;346.58;;;;;;;;;;5089603;28;20237;-74
2021/05/31 09:29:19;;;;;;;395.73;376.13;;;;;;;;;;5089730;28;20218;-74
2021/05/31 09:31:45;;;;;;;381.85;363.33;;;;;;;;;;5089698;28;20172;-74
2021/05/31 09:34:14;;;;;;;366.25;348.63;;;;;;;;;;5089598;28;20163;-74
2021/05/31 09:36:50;;;;;;;399.80;379.95;;;;;;;;;;5089588;28;20168;-73
2021/05/31 09:39:16;;;;;;;394.85;375.50;;;;;;;;;;5075840;28;20171;-73
2021/05/31 09:41:43;;;;;;;371.55;353.58;;;;;;;;;;5076064;28;20590;-74
2021/05/31 09:44:09;;;;;;;346.30;329.67;;;;;;;;;;5076523;28;20247;-74
2021/05/31 09:46:45;;;;;;;381.98;363.45;;;;;;;;;;5075778;28;20195;-74
2021/05/31 09:49:11;;;;;;;382.10;363.48;;;;;;;;;;5076433;28;20212;-74
2021/05/31 09:51:49;;;;;;;348.52;332.02;;;;;;;;;;5076525;28;20168;-74
2021/05/31 09:54:15;;;;;;;361.30;343.98;;;;;;;;;;5076158;28;20171;-74
2021/05/31 09:56:41;;;;;;;371.08;353.15;;;;;;;;;;5075787;28;20176;-73
2021/05/31 09:59:07;;;;;;;386.95;368.00;;;;;;;;;;5074420;28;20261;-74
2021/05/31 10:01:33;;;;;;;422.23;401.15;;;;;;;;;;5075733;28;20626;-73
2021/05/31 10:04:26;;;;;;;329.08;313.63;;;;;;;;;;5075690;28;20556;-73
2021/05/31 10:06:57;;;;;;;371.10;353.33;;;;;;;;;;5075567;28;20192;-73
2021/05/31 10:09:23;;;;;;;297.83;284.08;;;;;;;;;;5075544;28;20168;-73
2021/05/31 10:11:50;;;;;;;346.38;330.08;;;;;;;;;;5075525;28;20161;-73
2021/05/31 10:14:16;;;;;;;327.23;311.95;;;;;;;;;;5075482;28;20165;-73
2021/05/31 10:16:43;;;;;;;321.92;306.95;;;;;;;;;;5075485;28;20175;-73
2021/05/31 10:19:09;;;;;;;321.13;306.13;;;;;;;;;;5075277;28;20212;-73
2021/05/31 10:21:36;;;;;;;344.23;327.98;;;;;;;;;;5075330;28;20215;-73
2021/05/31 10:24:02;;;;;;;344.30;328.05;;;;;;;;;;5075224;28;20179;-73
2021/05/31 10:26:31;;;;;;;343.83;327.50;;;;;;;;;;5075005;28;20216;-73
2021/05/31 10:28:58;;;;;;;373.33;355.38;;;;;;;;;;5075190;28;20258;-73
2021/05/31 10:31:24;;;;;;;340.98;324.80;;;;;;;;;;5075132;28;20156;-73
2021/05/31 10:33:59;;;;;;;370.20;352.08;;;;;;;;;;5075179;28;20164;-74
2021/05/31 10:36:31;;;;;;;352.42;335.67;;;;;;;;;;5074993;28;20164;-73
2021/05/31 10:39:00;;;;;;;349.73;333.10;;;;;;;;;;5075011;28;20171;-74
2021/05/31 10:41:26;;;;;;;367.00;349.30;;;;;;;;;;5074904;28;20176;-73
2021/05/31 10:43:57;;;;;;;312.13;297.55;;;;;;;;;;5074905;28;20255;-73
2021/05/31 10:46:27;;;;;;;310.63;296.15;;;;;;;;;;5074851;28;20188;-73
2021/05/31 10:48:54;;;;;;;372.48;354.48;;;;;;;;;;5074387;28;20168;-73
2021/05/31 10:51:25;;;;;;;363.80;346.35;;;;;;;;;;5074202;28;20164;-73
2021/05/31 10:53:52;;;;;;;370.33;352.48;;;;;;;;;;5074719;28;20523;-74
2021/05/31 10:56:18;;;;;;;390.00;370.98;;;;;;;;;;5074644;28;20172;-73
2021/05/31 10:58:46;;;;;;;380.20;361.73;;;;;;;;;;5074583;28;20750;-73
2021/05/31 11:01:13;;;;;;;341.10;324.98;;;;;;;;;;5074513;28;20161;-73
2021/05/31 11:03:46;;;;;;;365.70;348.10;;;;;;;;;;5074439;28;20168;-74
2021/05/31 11:06:13;;;;;;;357.13;339.95;;;;;;;;;;5074407;28;20684;-74
2021/05/31 11:08:47;;;;;;;359.02;341.58;;;;;;;;;;5074388;28;20222;-73
2021/05/31 11:11:23;;;;;;;363.05;345.52;;;;;;;;;;5074372;28;20167;-73
2021/05/31 11:13:50;;;;;;;333.80;317.98;;;;;;;;;;5074296;28;20244;-73
2021/05/31 11:16:16;;;;;;;372.90;354.95;;;;;;;;;;5074161;28;20163;-74
2021/05/31 11:18:46;;;;;;;354.23;337.30;;;;;;;;;;5074143;28;20707;-73
2021/05/31 11:21:23;;;;;;;309.67;295.27;;;;;;;;;;5074132;28;20176;-73
2021/05/31 11:23:55;;;;;;;359.95;342.45;;;;;;;;;;5074135;28;20566;-73
2021/05/31 11:26:21;;;;;;;309.00;293.20;;;;;;;;;;5073792;28;20220;-74
2021/05/31 11:28:47;;;;;;;324.02;308.92;;;;;;;;;;5073843;28;20200;-73
2021/05/31 11:31:14;;;;;;;320.02;305.13;;;;;;;;;;5073955;28;20161;-73
2021/05/31 11:33:40;;;;;;;338.08;322.23;;;;;;;;;;5073912;28;20195;-73
2021/05/31 11:36:06;;;;;;;329.30;313.88;;;;;;;;;;5073892;28;20167;-73
2021/05/31 11:38:32;;;;;;;330.58;315.20;;;;;;;;;;5073938;28;20172;-74
2021/05/31 11:40:58;;;;;;;340.33;323.98;;;;;;;;;;5073759;28;20164;-73
2021/05/31 11:43:24;;;;;;;332.10;316.58;;;;;;;;;;5072402;28;20183;-73
2021/05/31 11:45:50;;;;;;;338.42;322.63;;;;;;;;;;5073669;28;20192;-74
2021/05/31 11:48:17;;;;;;;352.00;335.50;;;;;;;;;;5073636;28;20629;-74
2021/05/31 11:50:44;;;;;;;335.63;320.00;;;;;;;;;;5073668;28;20168;-74
2021/05/31 11:53:11;;;;;;;342.63;326.63;;;;;;;;;;5073630;28;20240;-74
2021/05/31 11:55:38;;;;;;;341.60;325.65;;;;;;;;;;5072293;28;20175;-74
2021/05/31 11:58:04;;;;;;;321.35;306.50;;;;;;;;;;5073547;28;20717;-74
2021/05/31 12:00:31;;;;;;;331.88;316.40;;;;;;;;;;5073314;28;20164;-74
2021/05/31 12:02:57;;;;;;;337.95;322.25;;;;;;;;;;5073454;28;20183;-74
2021/05/31 12:05:32;;;;;;;343.73;327.77;;;;;;;;;;5073544;28;20168;-74
2021/05/31 12:08:10;;;;;;;355.73;339.05;;;;;;;;;;5073412;28;20224;-74
2021/05/31 12:10:36;;;;;;;348.10;331.90;;;;;;;;;;5073396;28;20210;-74
2021/05/31 12:13:02;;;;;;;375.17;357.40;;;;;;;;;;5073416;28;20164;-74
2021/05/31 12:15:28;;;;;;;364.40;347.33;;;;;;;;;;5073365;28;20163;-74
2021/05/31 12:17:54;;;;;;;379.30;361.33;;;;;;;;;;5071987;28;20178;-74
2021/05/31 12:20:27;;;;;;;416.42;396.27;;;;;;;;;;5073305;28;20164;-74
2021/05/31 12:22:53;;;;;;;383.15;365.00;;;;;;;;;;5073211;28;20175;-74
2021/05/31 12:25:21;;;;;;;401.73;382.55;;;;;;;;;;5073237;28;20198;-74
2021/05/31 12:27:47;;;;;;;353.83;337.27;;;;;;;;;;5072884;28;20285;-74
2021/05/31 12:30:15;;;;;;;414.42;394.42;;;;;;;;;;5073171;28;20160;-74
2021/05/31 12:32:41;;;;;;;405.88;386.48;;;;;;;;;;5073125;28;20202;-74
2021/05/31 12:35:08;;;;;;;351.45;335.08;;;;;;;;;;5073134;28;20164;-74
2021/05/31 12:37:41;;;;;;;368.15;350.85;;;;;;;;;;5073165;28;20511;-74
2021/05/31 12:40:12;;;;;;;389.73;371.25;;;;;;;;;;5071898;28;20175;-74
2021/05/31 12:42:38;;;;;;;323.02;308.13;;;;;;;;;;5073099;28;20171;-74
2021/05/31 12:45:07;;;;;;;327.85;312.80;;;;;;;;;;5073101;28;20218;-75
2021/05/31 12:47:34;;;;;;;365.92;348.85;;;;;;;;;;5073027;28;20168;-74
2021/05/31 12:50:00;;;;;;;328.52;313.40;;;;;;;;;;5072977;28;20525;-75
2021/05/31 12:52:27;;;;;;;333.23;317.88;;;;;;;;;;5073002;28;20172;-75
2021/05/31 12:55:07;;;;;;;368.52;351.23;;;;;;;;;;5072981;28;20524;-74
2021/05/31 12:57:35;;;;;;;393.38;374.65;;;;;;;;;;5072955;28;20269;-75
2021/05/31 13:00:04;;;;;;;409.73;389.95;;;;;;;;;;5071623;28;20168;-74
2021/05/31 13:02:30;;;;;;;376.27;358.38;;;;;;;;;;5072927;28;20187;-75
2021/05/31 13:05:03;;;;;;;411.08;391.15;;;;;;;;;;5071865;28;20252;-72
2021/05/31 13:07:32;;;;;;;385.23;366.98;;;;;;;;;;5072994;28;20167;-72
2021/05/31 13:10:02;;;;;;;403.83;384.50;;;;;;;;;;5072799;28;20165;-72
2021/05/31 13:12:30;;;;;;;434.45;413.10;;;;;;;;;;5071727;28;20176;-72
2021/05/31 13:14:56;;;;;;;412.67;392.90;;;;;;;;;;5076528;28;20519;-72
2021/05/31 13:17:28;;;;;;;409.23;389.33;;;;;;;;;;5075105;28;20196;-72
2021/05/31 13:20:04;;;;;;;398.02;378.40;;;;;;;;;;5076504;28;20172;-72
2021/05/31 13:22:30;;;;;;;301.77;287.98;;;;;;;;;;5076372;28;20633;-72
2021/05/31 13:24:56;;;;;;;222.32;212.32;;;;;;;;;;5076339;28;20247;-72
2021/05/31 13:27:29;;;;;;;334.98;319.30;;;;;;;;;;5076058;28;20266;-72
2021/05/31 13:30:12;;;;;;;331.15;315.85;;;;;;;;;;5076308;28;20191;-72
2021/05/31 13:32:38;;;;;;;326.40;311.27;;;;;;;;;;5076192;28;20199;-72
2021/05/31 13:35:08;;;;;;;408.10;388.15;;;;;;;;;;5076199;28;20222;-72
2021/05/31 13:37:51;;;;;;;380.10;361.90;;;;;;;;;;5074809;28;20207;-72
2021/05/31 13:40:17;;;;;;;363.00;345.75;;;;;;;;;;5074780;28;20196;-72
2021/05/31 13:42:51;;;;;;;470.23;445.88;;;;;;;;;;5076021;28;20587;-72
2021/05/31 13:45:17;;;;;;;505.60;478.52;;;;;;;;;;5075808;28;20534;-72
2021/05/31 13:47:43;;;;;;;505.55;478.85;;;;;;;;;;5075789;28;20175;-72
2021/05/31 13:50:09;;;;;;;484.30;458.90;;;;;;;;;;5075864;28;20195;-72
2021/05/31 13:52:35;;;;;;;443.55;421.20;;;;;;;;;;5075812;28;20695;-72
2021/05/31 13:55:02;;;;;;;408.52;388.65;;;;;;;;;;5075800;28;20564;-72
2021/05/31 13:57:29;;;;;;;446.88;424.83;;;;;;;;;;5074637;28;20249;-72
2021/05/31 13:59:55;;;;;;;443.17;421.13;;;;;;;;;;5075642;28;20579;-74
2021/05/31 14:02:21;;;;;;;407.50;387.90;;;;;;;;;;5075689;28;20203;-75
2021/05/31 14:04:47;;;;;;;397.55;378.33;;;;;;;;;;5075611;28;20233;-75
2021/05/31 14:07:13;;;;;;;385.10;366.48;;;;;;;;;;5074311;28;20218;-75
2021/05/31 14:09:39;;;;;;;258.38;246.43;;;;;;;;;;5075709;28;20175;-72
2021/05/31 14:12:05;;;;;;;285.42;272.13;;;;;;;;;;5075562;28;20168;-72
2021/05/31 14:14:31;;;;;;;299.98;285.83;;;;;;;;;;5075490;28;20633;-72
2021/05/31 14:16:57;;;;;;;286.35;273.10;;;;;;;;;;5075492;28;20295;-72
2021/05/31 14:19:23;;;;;;;255.77;244.00;;;;;;;;;;5075329;28;20172;-73
2021/05/31 14:21:49;;;;;;;223.15;213.00;;;;;;;;;;5075307;28;20199;-73
2021/05/31 14:24:15;;;;;;;199.05;189.95;;;;;;;;;;5075630;28;20175;-72
2021/05/31 14:26:41;;;;;;;184.90;176.48;;;;;;;;;;5076440;28;20310;-73
2021/05/31 14:29:07;;;;;;;280.45;267.50;;;;;;;;;;5076077;28;20219;-72
2021/05/31 14:31:33;;;;;;;307.27;292.83;;;;;;;;;;5075253;28;20801;-73
2021/05/31 14:33:59;;;;;;;231.95;221.25;;;;;;;;;;5075052;28;20178;-73
2021/05/31 14:36:25;;;;;;;130.35;124.40;;;;;;;;;;5075023;28;20281;-73
2021/05/31 14:38:51;;;;;;;171.73;163.82;;;;;;;;;;5075070;28;20697;-73
2021/05/31 14:41:18;;;;;;;237.38;226.48;;;;;;;;;;5073642;28;20624;-72
2021/05/31 14:43:44;;;;;;;302.50;288.42;;;;;;;;;;5073684;28;20664;-73
2021/05/31 14:46:10;;;;;;;231.88;221.27;;;;;;;;;;5074873;28;20629;-73
2021/05/31 14:48:36;;;;;;;146.93;140.13;;;;;;;;;;5073444;28;20561;-73
2021/05/31 14:51:11;;;;;;;168.27;160.52;;;;;;;;;;5074773;28;20182;-73
2021/05/31 14:53:38;;;;;;;158.10;150.80;;;;;;;;;;5074775;28;20182;-73
2021/05/31 14:56:04;;;;;;;147.48;140.77;;;;;;;;;;5074606;28;20184;-73
2021/05/31 14:58:31;;;;;;;168.27;160.65;;;;;;;;;;5073339;28;20655;-73
2021/05/31 15:00:57;;;;;;;186.27;177.80;;;;;;;;;;5074514;28;20175;-72
2021/05/31 15:03:24;;;;;;;195.07;186.13;;;;;;;;;;5074503;28;20168;-73
2021/05/31 15:05:50;;;;;;;242.70;231.57;;;;;;;;;;5073160;28;20656;-73
2021/05/31 15:08:16;;;;;;;214.77;204.75;;;;;;;;;;5074409;28;20195;-73
2021/05/31 15:10:42;;;;;;;197.77;188.80;;;;;;;;;;5074379;28;20198;-73
2021/05/31 15:13:08;;;;;;;154.48;147.32;;;;;;;;;;5074268;28;20164;-73
2021/05/31 15:15:34;;;;;;;179.48;171.25;;;;;;;;;;5074125;28;20225;-73
2021/05/31 15:18:00;;;;;;;157.82;150.60;;;;;;;;;;5074064;28;20199;-73
2021/05/31 15:20:27;;;;;;;180.23;172.02;;;;;;;;;;5074078;28;20191;-73
2021/05/31 15:22:53;;;;;;;169.02;161.23;;;;;;;;;;5073993;28;20293;-73
2021/05/31 15:25:20;;;;;;;182.00;173.70;;;;;;;;;;5072784;28;20164;-73
2021/05/31 15:27:46;;;;;;;185.75;177.23;;;;;;;;;;5073701;28;20684;-73
2021/05/31 15:30:12;;;;;;;207.88;198.43;;;;;;;;;;5073912;28;20180;-73
2021/05/31 15:32:38;;;;;;;199.65;190.50;;;;;;;;;;5073855;28;20171;-73
2021/05/31 15:35:06;;;;;;;168.93;160.88;;;;;;;;;;5072316;28;20176;-73
2021/05/31 15:37:32;;;;;;;153.05;145.98;;;;;;;;;;5073531;28;20196;-73
2021/05/31 15:39:58;;;;;;;160.68;153.30;;;;;;;;;;5073638;28;20166;-73
2021/05/31 15:42:25;;;;;;;176.43;168.43;;;;;;;;;;5073650;28;20251;-73
2021/05/31 15:44:52;;;;;;;223.65;213.40;;;;;;;;;;5073587;28;20164;-73
2021/05/31 15:47:18;;;;;;;264.65;252.38;;;;;;;;;;5073463;28;20180;-73
2021/05/31 15:49:45;;;;;;;258.13;246.25;;;;;;;;;;5073519;28;20744;-73
2021/05/31 15:52:12;;;;;;;100.55;95.90;;;;;;;;;;5072230;28;20179;-73
2021/05/31 15:54:38;;;;;;;115.65;110.38;;;;;;;;;;5073526;28;20556;-73
2021/05/31 15:57:05;;;;;;;128.07;122.18;;;;;;;;;;5073343;28;20199;-73
2021/05/31 15:59:31;;;;;;;150.10;143.27;;;;;;;;;;5073452;28;20164;-73
2021/05/31 16:02:00;;;;;;;136.13;129.68;;;;;;;;;;5073411;28;20751;-73
2021/05/31 16:04:26;;;;;;;145.38;138.50;;;;;;;;;;5073300;28;20160;-73
2021/05/31 16:06:52;;;;;;;101.70;97.07;;;;;;;;;;5073250;28;20167;-73
2021/05/31 16:09:18;;;;;;;100.18;95.70;;;;;;;;;;5071984;28;20179;-73
2021/05/31 16:11:44;;;;;;;117.85;112.50;;;;;;;;;;5071918;28;20479;-73
2021/05/31 16:14:10;;;;;;;120.75;115.18;;;;;;;;;;5073195;28;20733;-73
2021/05/31 16:16:40;;;;;;;96.53;92.22;;;;;;;;;;5073255;28;20234;-73
2021/05/31 16:19:06;;;;;;;67.47;64.38;;;;;;;;;;5073349;28;20163;-73
2021/05/31 16:21:32;;;;;;;106.10;101.32;;;;;;;;;;5073310;28;20251;-72
2021/05/31 16:24:03;;;;;;;136.20;129.90;;;;;;;;;;5073249;28;20160;-73
2021/05/31 16:26:29;;;;;;;103.65;98.95;;;;;;;;;;5073094;28;20219;-73
2021/05/31 16:28:55;;;;;;;124.93;119.25;;;;;;;;;;5071896;28;20199;-73
2021/05/31 16:31:21;;;;;;;157.13;149.93;;;;;;;;;;5073135;28;20667;-73
2021/05/31 16:33:47;;;;;;;127.70;121.82;;;;;;;;;;5073210;28;20253;-70
2021/05/31 16:36:13;;;;;;;151.55;144.50;;;;;;;;;;5073088;28;20199;-72
2021/05/31 16:38:40;;;;;;;74.05;70.80;;;;;;;;;;5073084;28;20168;-72
2021/05/31 16:41:06;;;;;;;178.25;170.02;;;;;;;;;;5071781;28;20164;-73
2021/05/31 16:43:32;;;;;;;58.95;56.45;;;;;;;;;;5073054;28;20168;-73
2021/05/31 16:45:58;;;;;;;109.30;104.00;;;;;;;;;;5073057;28;20652;-73
2021/05/31 16:48:24;;;;;;;62.30;59.60;;;;;;;;;;5074825;28;20172;-72
2021/05/31 16:50:50;;;;;;;97.15;92.65;;;;;;;;;;5077045;28;20620;-72
2021/05/31 16:53:16;;;;;;;118.15;112.75;;;;;;;;;;5075706;28;20199;-72
2021/05/31 16:55:42;;;;;;;151.95;144.98;;;;;;;;;;5075519;28;20625;-72
2021/05/31 16:58:08;;;;;;;142.63;136.13;;;;;;;;;;5076890;28;20164;-72
2021/05/31 17:00:35;;;;;;;140.07;133.68;;;;;;;;;;5076822;28;20236;-72
2021/05/31 17:03:02;;;;;;;184.27;175.52;;;;;;;;;;5076886;28;20175;-72
2021/05/31 17:05:30;;;;;;;234.18;223.43;;;;;;;;;;5076852;28;20172;-72
2021/05/31 17:10:29;;;;;;;156.73;149.48;;;;;;;;;;5076696;28;20229;-73
2021/05/31 17:15:53;;;;;;;273.40;260.65;;;;;;;;;;5076796;28;20229;-73
2021/05/31 17:20:52;;;;;;;120.88;115.40;;;;;;;;;;5076442;28;20255;-72
2021/05/31 17:23:18;;;;;;;124.72;119.05;;;;;;;;;;5075133;28;20178;-73
2021/05/31 17:25:44;;;;;;;142.20;135.65;;;;;;;;;;5076223;28;20190;-74
2021/05/31 17:28:10;;;;;;;157.55;150.43;;;;;;;;;;5076327;28;20630;-73
2021/05/31 17:30:39;;;;;;;174.40;166.43;;;;;;;;;;5076290;28;20191;-73
2021/05/31 17:33:05;;;;;;;218.63;208.65;;;;;;;;;;5074896;28;20172;-72
2021/05/31 17:35:31;;;;;;;282.02;268.80;;;;;;;;;;5076173;28;20189;-72
2021/05/31 17:37:57;;;;;;;244.82;233.63;;;;;;;;;;5076095;28;20206;-72
2021/05/31 17:40:26;;;;;;;245.43;234.05;;;;;;;;;;5076159;28;20168;-72
2021/05/31 17:42:52;;;;;;;242.95;231.90;;;;;;;;;;5076098;28;20641;-72
2021/05/31 17:45:24;;;;;;;280.27;267.30;;;;;;;;;;5075993;28;20168;-73
2021/05/31 17:47:51;;;;;;;368.65;350.75;;;;;;;;;;5075943;28;20685;-72
2021/05/31 17:50:17;;;;;;;234.25;223.60;;;;;;;;;;5075925;28;20172;-72
2021/05/31 17:52:43;;;;;;;241.77;230.65;;;;;;;;;;5076009;28;20202;-72
2021/05/31 17:55:10;;;;;;;252.65;241.05;;;;;;;;;;5075840;28;20171;-72
2021/05/31 17:57:36;;;;;;;259.80;247.85;;;;;;;;;;5075781;28;20274;-72
2021/05/31 18:00:05;;;;;;;296.95;283.02;;;;;;;;;;5075354;28;20164;-72
2021/05/31 18:02:31;;;;;;;327.88;312.48;;;;;;;;;;5075774;28;20164;-72
2021/05/31 18:04:57;;;;;;;398.45;378.42;;;;;;;;;;5075724;28;20656;-73
2021/05/31 18:07:24;;;;;;;342.45;326.13;;;;;;;;;;5074397;28;20581;-73
2021/05/31 18:09:50;;;;;;;313.20;298.27;;;;;;;;;;5075694;28;20168;-73
2021/05/31 18:12:16;;;;;;;411.05;390.52;;;;;;;;;;5075555;28;20202;-73
2021/05/31 18:14:45;;;;;;;386.67;367.48;;;;;;;;;;5075539;28;20573;-73
2021/05/31 18:17:11;;;;;;;312.27;297.63;;;;;;;;;;5075353;28;20648;-73
2021/05/31 18:19:41;;;;;;;325.67;310.30;;;;;;;;;;5075440;28;20179;-73
2021/05/31 18:22:07;;;;;;;338.33;322.20;;;;;;;;;;5075453;28;20199;-73
2021/05/31 18:24:34;;;;;;;319.67;304.73;;;;;;;;;;5075357;28;20160;-73
2021/05/31 18:27:00;;;;;;;405.55;385.65;;;;;;;;;;5075133;28;20215;-73
2021/05/31 18:29:26;;;;;;;419.27;398.73;;;;;;;;;;5074989;28;20210;-73
2021/05/31 18:31:52;;;;;;;395.55;376.40;;;;;;;;;;5075182;28;20229;-73
2021/05/31 18:34:25;;;;;;;366.20;348.88;;;;;;;;;;5075048;28;20539;-73
2021/05/31 18:36:54;;;;;;;296.98;283.30;;;;;;;;;;5074963;28;20248;-73
2021/05/31 18:39:20;;;;;;;409.95;390.00;;;;;;;;;;5074966;28;20186;-73
2021/05/31 18:41:46;;;;;;;423.15;402.02;;;;;;;;;;5074841;28;20649;-73
2021/05/31 18:44:13;;;;;;;477.33;452.80;;;;;;;;;;5074914;28;20168;-73
2021/05/31 18:46:40;;;;;;;444.77;422.27;;;;;;;;;;5074839;28;20168;-73
2021/05/31 18:49:07;;;;;;;458.02;434.65;;;;;;;;;;5074933;28;20194;-73
2021/05/31 18:51:33;;;;;;;427.50;406.42;;;;;;;;;;5074758;28;20168;-73
2021/05/31 18:54:00;;;;;;;480.73;456.08;;;;;;;;;;5075283;28;20254;-73
2021/05/31 18:56:26;;;;;;;481.23;456.50;;;;;;;;;;5074705;28;20313;-72
2021/05/31 18:58:52;;;;;;;489.15;463.92;;;;;;;;;;5074750;28;20628;-73
2021/05/31 19:01:18;;;;;;;490.88;465.38;;;;;;;;;;5074075;28;20227;-73
2021/05/31 19:03:45;;;;;;;474.40;450.10;;;;;;;;;;5074586;28;20171;-73
2021/05/31 19:06:12;;;;;;;489.90;464.55;;;;;;;;;;5074659;28;20168;-73
2021/05/31 19:08:40;;;;;;;481.38;456.80;;;;;;;;;;5073303;28;20171;-73
2021/05/31 19:11:07;;;;;;;492.65;466.85;;;;;;;;;;5072618;28;20176;-72
2021/05/31 19:13:36;;;;;;;506.05;479.50;;;;;;;;;;5074522;28;20172;-72
2021/05/31 19:16:03;;;;;;;497.02;470.60;;;;;;;;;;5074077;28;20168;-71
2021/05/31 19:18:29;;;;;;;502.23;475.88;;;;;;;;;;5074036;28;20625;-72
2021/05/31 19:20:55;;;;;;;452.58;430.10;;;;;;;;;;5073953;28;20171;-72
2021/05/31 19:23:23;;;;;;;438.05;416.38;;;;;;;;;;5073902;28;20221;-72
